Time;durP1;ratioP1;P1;durP2;ratioP2;P2;SDS_P1;SDS_P2;PMS_P1;PMS_P2;Temp;Humidity;BMP_temperature;BMP_pressure;BME280_temperature;BME280_humidity;BME280_pressure;Samples;Min_cycle;Max_cycle;Signal;HPM_P1;HPM_P2
2021/04/27 00:00:18;;;;;;;0.70;0.70;;;23.30;35.10;;;;;;5086613;28;20025;-56
2021/04/27 00:02:44;;;;;;;2.17;1.02;;;23.30;35.10;;;;;;5083656;28;20028;-57
2021/04/27 00:05:12;;;;;;;1.75;0.80;;;23.30;35.10;;;;;;5084031;28;20114;-59
2021/04/27 00:07:38;;;;;;;1.00;0.77;;;23.30;35.10;;;;;;5085449;28;20055;-54
2021/04/27 00:10:07;;;;;;;3.00;0.90;;;23.30;35.10;;;;;;5085836;28;20339;-56
2021/04/27 00:12:33;;;;;;;1.25;0.70;;;23.20;35.10;;;;;;5082384;28;20174;-59
2021/04/27 00:14:58;;;;;;;1.42;0.80;;;23.20;35.10;;;;;;5086609;28;20130;-55
2021/04/27 00:17:24;;;;;;;1.15;0.90;;;23.20;35.10;;;;;;5082379;28;20044;-56
2021/04/27 00:19:50;;;;;;;1.23;0.80;;;23.20;35.10;;;;;;5086457;28;20127;-51
2021/04/27 00:22:15;;;;;;;0.60;0.60;;;23.20;35.10;;;;;;5086404;28;20141;-57
2021/04/27 00:24:41;;;;;;;1.17;0.80;;;23.20;35.10;;;;;;5085142;28;20709;-55
2021/04/27 00:27:06;;;;;;;1.92;0.80;;;23.20;35.20;;;;;;5085318;28;20040;-56
2021/04/27 00:29:32;;;;;;;1.42;0.80;;;23.20;35.10;;;;;;5087355;28;20069;-54
2021/04/27 00:31:58;;;;;;;1.13;0.75;;;23.20;35.20;;;;;;5086640;28;20039;-56
2021/04/27 00:34:24;;;;;;;1.25;0.73;;;23.10;35.10;;;;;;5087384;28;20442;-56
2021/04/27 00:36:49;;;;;;;1.50;0.80;;;23.10;35.10;;;;;;5082234;28;20043;-55
2021/04/27 00:39:15;;;;;;;2.33;0.80;;;23.10;35.70;;;;;;5086465;28;20036;-54
2021/04/27 00:41:42;;;;;;;1.58;0.77;;;23.10;35.10;;;;;;5085462;28;20470;-55
2021/04/27 00:44:07;;;;;;;1.27;0.80;;;23.10;35.10;;;;;;5084612;28;20047;-57
2021/04/27 00:46:33;;;;;;;0.80;0.70;;;23.10;35.10;;;;;;5083759;28;20028;-57
2021/04/27 00:48:59;;;;;;;1.40;0.80;;;23.10;35.20;;;;;;5085627;28;20084;-55
2021/04/27 00:51:24;;;;;;;1.38;0.80;;;23.10;35.20;;;;;;5083504;28;20463;-56
2021/04/27 00:53:52;;;;;;;1.20;0.80;;;23.10;35.20;;;;;;5080769;28;20028;-59
2021/04/27 00:56:19;;;;;;;2.25;0.80;;;23.10;35.20;;;;;;5085381;28;20036;-56
2021/04/27 00:58:45;;;;;;;0.65;0.60;;;23.00;35.20;;;;;;5076580;28;20028;-56
2021/04/27 01:01:12;;;;;;;0.95;0.68;;;23.10;35.20;;;;;;5074175;28;20040;-55
2021/04/27 01:03:38;;;;;;;1.55;0.77;;;23.00;35.20;;;;;;5086349;28;20036;-55
2021/04/27 01:06:04;;;;;;;1.65;0.93;;;23.00;35.20;;;;;;5084831;28;20020;-56
2021/04/27 01:09:09;;;;;;;1.17;0.80;;;23.00;35.20;;;;;;5083779;28;20456;-58
2021/04/27 01:11:55;;;;;;;1.17;0.77;;;23.00;35.20;;;;;;5064296;28;20111;-52
2021/04/27 01:14:38;;;;;;;0.93;0.80;;;23.00;35.20;;;;;;5080983;28;20042;-55
2021/04/27 01:17:06;;;;;;;1.30;0.80;;;23.00;35.20;;;;;;5079826;28;20405;-55
2021/04/27 01:19:57;;;;;;;1.42;0.90;;;23.00;35.30;;;;;;5083913;28;20119;-54
2021/04/27 01:22:48;;;;;;;1.15;0.85;;;22.90;35.20;;;;;;5083681;28;20495;-55
2021/04/27 01:25:18;;;;;;;1.55;0.80;;;22.90;35.20;;;;;;5082973;28;20051;-56
2021/04/27 01:27:44;;;;;;;0.85;0.70;;;22.90;35.20;;;;;;5080365;28;20371;-54
2021/04/27 01:30:11;;;;;;;1.00;0.73;;;22.90;35.20;;;;;;5081524;28;20114;-55
2021/04/27 01:32:37;;;;;;;0.98;0.70;;;22.90;35.20;;;;;;5083983;28;20028;-55
2021/04/27 01:35:04;;;;;;;1.17;0.80;;;22.90;35.30;;;;;;5085096;28;20043;-53
2021/04/27 01:37:30;;;;;;;1.13;0.70;;;22.90;35.30;;;;;;5081194;28;20043;-57
2021/04/27 01:39:57;;;;;;;1.85;1.10;;;22.90;35.30;;;;;;5085499;28;20139;-56
2021/04/27 01:42:22;;;;;;;1.00;0.80;;;22.80;35.20;;;;;;5084245;28;20052;-55
2021/04/27 01:44:48;;;;;;;1.02;0.70;;;22.80;35.60;;;;;;5082300;28;20371;-55
2021/04/27 01:47:15;;;;;;;1.35;0.80;;;22.80;35.20;;;;;;5085146;28;20301;-56
2021/04/27 01:49:42;;;;;;;1.10;0.80;;;22.80;35.20;;;;;;5086434;28;20077;-56
2021/04/27 01:52:08;;;;;;;1.35;0.82;;;22.80;35.20;;;;;;5084103;28;20043;-58
2021/04/27 01:54:34;;;;;;;0.95;0.73;;;22.80;35.80;;;;;;5083788;28;20064;-57
2021/04/27 01:57:00;;;;;;;1.25;0.70;;;22.80;35.30;;;;;;5086037;28;20043;-53
2021/04/27 01:59:26;;;;;;;0.75;0.68;;;22.80;35.30;;;;;;5085512;28;20050;-54
2021/04/27 02:01:51;;;;;;;1.38;0.80;;;22.80;35.70;;;;;;5074243;28;20044;-58
2021/04/27 02:04:25;;;;;;;1.17;0.75;;;22.80;35.30;;;;;;5084825;28;20040;-54
2021/04/27 02:06:52;;;;;;;1.17;0.70;;;22.80;35.30;;;;;;5084239;28;20063;-55
2021/04/27 02:09:20;;;;;;;0.80;0.60;;;22.70;35.20;;;;;;5084605;28;20040;-59
2021/04/27 02:11:49;;;;;;;1.00;0.70;;;22.80;35.30;;;;;;5086744;28;20456;-55
2021/04/27 02:14:16;;;;;;;0.77;0.70;;;22.80;35.30;;;;;;5084024;28;20455;-56
2021/04/27 02:17:05;;;;;;;1.05;0.70;;;22.70;35.30;;;;;;5082511;28;20028;-56
2021/04/27 02:19:33;;;;;;;1.17;0.82;;;22.70;35.30;;;;;;5078648;28;20036;-56
2021/04/27 02:22:05;;;;;;;0.93;0.70;;;22.70;35.30;;;;;;5072456;28;20085;-56
2021/04/27 02:24:33;;;;;;;0.70;0.68;;;22.70;35.40;;;;;;5081508;28;20024;-56
2021/04/27 02:26:59;;;;;;;1.60;0.90;;;22.70;35.30;;;;;;5088625;28;20389;-57
2021/04/27 02:29:27;;;;;;;0.95;0.60;;;22.70;35.30;;;;;;5089319;28;20035;-57
2021/04/27 02:31:53;;;;;;;1.05;0.80;;;22.70;35.90;;;;;;5080663;28;20036;-56
2021/04/27 02:34:21;;;;;;;0.95;0.60;;;22.70;35.50;;;;;;5089471;28;20024;-57
2021/04/27 02:36:48;;;;;;;0.90;0.70;;;22.70;35.30;;;;;;5088841;28;20073;-58
2021/04/27 02:39:15;;;;;;;0.60;0.60;;;22.70;35.30;;;;;;5081652;28;20024;-55
2021/04/27 02:41:41;;;;;;;1.13;0.70;;;22.70;35.40;;;;;;5088418;28;20115;-52
2021/04/27 02:44:08;;;;;;;1.08;0.70;;;22.70;35.40;;;;;;5088786;28;20119;-55
2021/04/27 02:46:35;;;;;;;0.82;0.70;;;22.60;35.30;;;;;;5087823;28;20419;-55
2021/04/27 02:49:00;;;;;;;1.20;0.60;;;22.60;35.30;;;;;;5087826;28;20052;-56
2021/04/27 02:51:26;;;;;;;0.73;0.60;;;22.60;35.30;;;;;;5089139;28;20066;-56
2021/04/27 02:53:52;;;;;;;0.85;0.70;;;22.60;35.30;;;;;;5083989;28;20043;-55
2021/04/27 02:56:18;;;;;;;1.27;0.70;;;22.60;35.30;;;;;;5077443;28;20024;-55
2021/04/27 02:58:44;;;;;;;0.75;0.57;;;22.60;35.30;;;;;;5086452;28;20097;-58
2021/04/27 03:01:10;;;;;;;0.82;0.70;;;22.60;35.40;;;;;;5081633;28;20072;-58
2021/04/27 03:03:35;;;;;;;1.08;0.70;;;22.60;35.40;;;;;;5082044;28;20063;-53
2021/04/27 03:06:02;;;;;;;0.98;0.70;;;22.50;35.30;;;;;;5088179;28;20081;-54
2021/04/27 03:08:28;;;;;;;0.70;0.60;;;22.60;35.40;;;;;;5077613;28;20025;-59
2021/04/27 03:10:54;;;;;;;0.80;0.60;;;22.60;35.40;;;;;;5088205;28;20520;-55
2021/04/27 03:13:20;;;;;;;1.13;0.80;;;22.50;35.30;;;;;;5088032;28;20766;-58
2021/04/27 03:15:46;;;;;;;0.95;0.70;;;22.50;35.30;;;;;;5086977;28;20040;-54
2021/04/27 03:18:12;;;;;;;0.82;0.63;;;22.50;35.30;;;;;;5087688;28;20035;-55
2021/04/27 03:20:41;;;;;;;0.80;0.70;;;22.50;35.30;;;;;;5086068;28;20092;-58
2021/04/27 03:23:06;;;;;;;0.97;0.60;;;22.50;35.40;;;;;;5086777;28;20116;-55
2021/04/27 03:25:32;;;;;;;1.05;0.70;;;22.50;35.40;;;;;;5086189;28;20116;-57
2021/04/27 03:27:58;;;;;;;0.82;0.70;;;22.50;35.40;;;;;;5089178;28;20039;-57
2021/04/27 03:30:23;;;;;;;0.75;0.60;;;22.50;35.40;;;;;;5083703;28;20032;-57
2021/04/27 03:32:49;;;;;;;0.82;0.60;;;22.50;35.40;;;;;;5076451;28;20550;-57
2021/04/27 03:35:15;;;;;;;0.90;0.77;;;22.50;35.40;;;;;;5087825;28;20089;-57
2021/04/27 03:37:42;;;;;;;1.02;0.77;;;22.40;35.40;;;;;;5086495;28;20035;-56
2021/04/27 03:40:10;;;;;;;0.55;0.50;;;22.40;35.30;;;;;;5087772;28;20451;-56
2021/04/27 03:42:37;;;;;;;0.80;0.70;;;22.50;35.40;;;;;;5088702;28;20036;-55
2021/04/27 03:45:05;;;;;;;0.70;0.60;;;22.40;35.40;;;;;;5084508;28;20032;-52
2021/04/27 03:47:31;;;;;;;0.70;0.70;;;22.40;35.40;;;;;;5078997;28;20028;-54
2021/04/27 03:49:56;;;;;;;1.00;0.73;;;22.40;35.40;;;;;;5088533;28;20024;-57
2021/04/27 03:52:22;;;;;;;0.73;0.60;;;22.40;35.40;;;;;;5088561;28;20028;-52
2021/04/27 03:54:47;;;;;;;0.70;0.60;;;22.30;35.40;;;;;;5086639;28;20032;-55
2021/04/27 03:57:13;;;;;;;0.73;0.60;;;22.40;35.40;;;;;;5087808;28;20024;-57
2021/04/27 03:59:38;;;;;;;1.20;0.70;;;22.40;35.40;;;;;;5088687;28;20059;-56
2021/04/27 04:02:04;;;;;;;0.73;0.70;;;22.40;35.40;;;;;;5084276;28;20067;-55
2021/04/27 04:04:30;;;;;;;1.63;0.80;;;22.30;35.40;;;;;;5087228;28;20529;-58
2021/04/27 04:06:55;;;;;;;0.80;0.70;;;22.30;35.40;;;;;;5082985;28;20176;-54
2021/04/27 04:09:21;;;;;;;0.90;0.70;;;22.30;35.40;;;;;;5082967;28;20050;-52
2021/04/27 04:11:46;;;;;;;0.60;0.60;;;22.30;35.40;;;;;;5082511;28;20130;-54
2021/04/27 04:14:12;;;;;;;0.90;0.80;;;22.30;35.40;;;;;;5085642;28;20035;-56
2021/04/27 04:16:38;;;;;;;1.00;0.70;;;22.30;35.40;;;;;;5080078;28;20084;-55
2021/04/27 04:19:04;;;;;;;1.05;0.70;;;22.30;35.40;;;;;;5086758;28;20032;-59
2021/04/27 04:21:30;;;;;;;1.13;0.70;;;22.30;35.40;;;;;;5086671;28;20036;-58
2021/04/27 04:23:56;;;;;;;0.80;0.60;;;22.30;35.40;;;;;;5082978;28;20179;-54
2021/04/27 04:26:22;;;;;;;0.68;0.60;;;22.30;35.40;;;;;;5087020;28;20055;-53
2021/04/27 04:28:48;;;;;;;1.08;0.70;;;22.30;35.40;;;;;;5086959;28;20328;-54
2021/04/27 04:31:14;;;;;;;1.10;0.70;;;22.30;35.40;;;;;;5076402;28;20064;-53
2021/04/27 04:33:39;;;;;;;0.88;0.70;;;22.20;35.40;;;;;;5080404;28;20086;-58
2021/04/27 04:36:06;;;;;;;1.10;0.80;;;22.20;35.40;;;;;;5086849;28;20066;-54
2021/04/27 04:38:31;;;;;;;0.93;0.70;;;22.20;35.40;;;;;;5086035;28;20047;-53
2021/04/27 04:40:57;;;;;;;0.98;0.77;;;22.20;35.40;;;;;;5086698;28;20071;-54
2021/04/27 04:43:23;;;;;;;0.60;0.60;;;22.20;35.40;;;;;;5087759;28;20028;-55
2021/04/27 04:45:49;;;;;;;0.93;0.73;;;22.20;35.40;;;;;;5081399;28;20028;-54
2021/04/27 04:48:14;;;;;;;0.85;0.70;;;22.20;35.40;;;;;;5085659;28;20055;-53
2021/04/27 04:50:40;;;;;;;1.08;0.70;;;22.20;35.40;;;;;;5074215;28;20028;-57
2021/04/27 04:53:06;;;;;;;0.60;0.52;;;22.20;35.40;;;;;;5079053;28;20370;-57
2021/04/27 04:55:35;;;;;;;1.00;0.65;;;22.20;35.40;;;;;;5087027;28;20020;-58
2021/04/27 04:58:02;;;;;;;1.00;0.85;;;22.20;35.40;;;;;;5084032;28;20032;-53
2021/04/27 05:00:27;;;;;;;1.08;0.80;;;22.10;35.40;;;;;;5085959;28;20032;-56
2021/04/27 05:02:53;;;;;;;1.27;0.70;;;22.10;35.40;;;;;;5074223;28;20033;-58
2021/04/27 05:05:19;;;;;;;2.28;0.93;;;22.10;35.40;;;;;;5077530;28;20027;-55
2021/04/27 05:07:57;;;;;;;0.80;0.60;;;22.10;35.40;;;;;;5086264;28;20136;-55
2021/04/27 05:10:23;;;;;;;1.35;0.80;;;22.10;36.00;;;;;;5084837;28;20027;-55
2021/04/27 05:12:49;;;;;;;0.80;0.80;;;22.10;35.40;;;;;;5084223;28;20020;-52
2021/04/27 05:15:15;;;;;;;0.93;0.80;;;22.10;35.50;;;;;;5086190;28;20104;-58
2021/04/27 05:17:41;;;;;;;1.17;0.80;;;22.10;35.50;;;;;;5086852;28;20193;-57
2021/04/27 05:20:07;;;;;;;0.60;0.60;;;22.10;35.50;;;;;;5086629;28;20040;-57
2021/04/27 05:22:33;;;;;;;0.90;0.70;;;22.10;35.60;;;;;;5086105;28;20084;-54
2021/04/27 05:24:59;;;;;;;1.02;0.75;;;22.10;35.50;;;;;;5080253;28;20040;-53
2021/04/27 05:27:24;;;;;;;1.10;0.70;;;22.10;35.60;;;;;;5086636;28;20119;-54
2021/04/27 05:29:51;;;;;;;1.08;0.80;;;22.10;35.60;;;;;;5085891;28;20502;-52
2021/04/27 05:32:16;;;;;;;1.33;0.80;;;22.10;35.60;;;;;;5083594;28;20115;-54
2021/04/27 05:34:42;;;;;;;1.45;0.80;;;22.00;35.60;;;;;;5075619;28;20534;-52
2021/04/27 05:37:08;;;;;;;1.48;0.80;;;22.00;35.60;;;;;;5071473;28;20040;-55
2021/04/27 05:39:34;;;;;;;1.27;0.80;;;22.00;35.60;;;;;;5084022;28;20032;-56
2021/04/27 05:42:00;;;;;;;0.95;0.70;;;22.00;35.60;;;;;;5083949;28;20051;-52
2021/04/27 05:44:26;;;;;;;1.10;0.70;;;22.00;35.60;;;;;;5084412;28;20076;-52
2021/04/27 05:46:52;;;;;;;1.20;0.80;;;22.00;35.70;;;;;;5087546;28;20103;-53
2021/04/27 05:49:18;;;;;;;1.15;0.77;;;22.00;35.80;;;;;;5096706;28;20043;-55
2021/04/27 05:51:43;;;;;;;1.15;0.80;;;22.10;35.80;;;;;;5097561;28;20021;-55
2021/04/27 05:54:09;;;;;;;1.42;0.88;;;22.00;35.80;;;;;;5085177;28;20034;-54
2021/04/27 05:56:35;;;;;;;1.13;0.65;;;22.10;35.90;;;;;;5091602;28;20080;-56
2021/04/27 05:59:01;;;;;;;0.98;0.70;;;22.10;35.90;;;;;;5097807;28;20051;-55
2021/04/27 06:01:28;;;;;;;1.83;0.80;;;22.10;35.90;;;;;;5089777;28;20374;-56
2021/04/27 06:03:54;;;;;;;1.48;0.80;;;22.10;35.90;;;;;;5095150;28;20028;-58
2021/04/27 06:06:19;;;;;;;1.38;0.70;;;22.10;36.00;;;;;;5098001;28;20593;-58
2021/04/27 06:08:45;;;;;;;1.42;0.80;;;22.10;35.90;;;;;;5098292;28;20125;-54
2021/04/27 06:11:11;;;;;;;1.33;0.88;;;22.20;35.90;;;;;;5110834;28;20030;-58
2021/04/27 06:13:40;;;;;;;2.30;0.80;;;22.20;35.90;;;;;;5095195;28;20065;-55
2021/04/27 06:16:06;;;;;;;1.77;0.60;;;22.20;35.90;;;;;;5089886;28;20024;-58
2021/04/27 06:18:32;;;;;;;1.25;0.80;;;22.20;35.90;;;;;;5084484;28;20549;-53
2021/04/27 06:20:58;;;;;;;1.13;0.73;;;22.30;35.80;;;;;;5078289;28;20036;-55
2021/04/27 06:23:24;;;;;;;1.48;0.80;;;22.30;35.80;;;;;;5075505;28;20393;-50
2021/04/27 06:25:51;;;;;;;1.27;0.77;;;22.30;35.80;;;;;;5091213;28;20028;-55
2021/04/27 06:28:16;;;;;;;1.77;0.80;;;22.30;35.80;;;;;;5095114;28;20143;-54
2021/04/27 06:30:43;;;;;;;1.17;0.77;;;22.30;36.20;;;;;;5094229;28;20431;-56
2021/04/27 06:33:09;;;;;;;1.00;0.70;;;22.40;36.30;;;;;;5090188;28;20045;-51
2021/04/27 06:35:35;;;;;;;1.80;1.00;;;22.40;36.40;;;;;;5086306;28;20858;-52
2021/04/27 06:38:01;;;;;;;1.15;0.80;;;22.50;35.80;;;;;;5089465;28;20020;-57
2021/04/27 06:40:27;;;;;;;1.25;0.77;;;22.50;35.70;;;;;;5085325;28;20483;-53
2021/04/27 06:42:53;;;;;;;1.33;0.80;;;22.50;35.70;;;;;;5085239;28;20507;-53
2021/04/27 06:45:18;;;;;;;1.83;0.95;;;22.50;35.70;;;;;;5090766;28;20128;-55
2021/04/27 06:47:46;;;;;;;1.90;0.82;;;22.50;35.60;;;;;;5089467;28;20451;-54
2021/04/27 06:50:12;;;;;;;1.17;0.80;;;22.50;35.60;;;;;;5090131;28;20032;-53
2021/04/27 06:52:38;;;;;;;0.90;0.70;;;22.60;35.60;;;;;;5087516;28;20073;-53
2021/04/27 06:55:05;;;;;;;2.75;0.90;;;22.60;35.60;;;;;;5093158;28;20028;-55
2021/04/27 06:57:30;;;;;;;1.63;0.85;;;22.60;35.60;;;;;;5083835;28;20491;-52
2021/04/27 06:59:57;;;;;;;1.20;0.90;;;22.60;35.50;;;;;;5084251;28;20454;-51
2021/04/27 07:02:23;;;;;;;1.30;0.82;;;22.60;35.50;;;;;;5076701;28;20382;-55
2021/04/27 07:04:48;;;;;;;1.10;0.70;;;22.60;35.50;;;;;;5086970;28;20028;-53
2021/04/27 07:07:14;;;;;;;1.50;0.88;;;22.70;35.50;;;;;;5093959;28;20035;-53
2021/04/27 07:09:39;;;;;;;1.98;0.80;;;22.70;35.50;;;;;;5076344;28;20032;-52
2021/04/27 07:12:06;;;;;;;1.50;0.80;;;22.70;35.50;;;;;;5091557;28;20032;-56
2021/04/27 07:14:31;;;;;;;2.13;0.90;;;22.70;35.50;;;;;;5076044;28;20181;-56
2021/04/27 07:16:57;;;;;;;1.83;0.95;;;22.70;35.40;;;;;;5070709;28;20040;-56
2021/04/27 07:19:23;;;;;;;1.63;0.80;;;22.80;35.50;;;;;;5094749;28;20382;-54
2021/04/27 07:21:52;;;;;;;1.42;0.90;;;22.80;35.50;;;;;;5091471;28;20028;-57
2021/04/27 07:24:18;;;;;;;2.05;0.90;;;22.80;35.40;;;;;;5088354;28;20028;-54
2021/04/27 07:26:45;;;;;;;1.52;0.90;;;22.80;35.90;;;;;;5086917;28;20031;-56
2021/04/27 07:29:12;;;;;;;1.60;0.80;;;22.80;35.40;;;;;;5092053;28;20059;-56
2021/04/27 07:31:39;;;;;;;1.40;0.80;;;22.80;35.40;;;;;;5079953;28;20454;-53
2021/04/27 07:34:06;;;;;;;1.33;0.82;;;22.90;35.40;;;;;;5076424;28;20032;-54
2021/04/27 07:36:32;;;;;;;1.30;0.80;;;22.90;35.40;;;;;;5071742;28;20452;-52
2021/04/27 07:38:59;;;;;;;1.95;1.00;;;22.90;35.30;;;;;;5069676;28;20028;-57
2021/04/27 07:41:25;;;;;;;1.52;0.90;;;22.90;35.30;;;;;;5076749;28;20039;-54
2021/04/27 07:43:51;;;;;;;1.13;0.70;;;23.00;35.30;;;;;;5072953;28;20036;-58
2021/04/27 07:46:16;;;;;;;1.23;0.73;;;23.00;35.30;;;;;;5072791;28;20025;-54
2021/04/27 07:48:42;;;;;;;2.50;1.00;;;23.00;35.30;;;;;;5066570;28;20017;-51
2021/04/27 07:51:08;;;;;;;1.80;0.88;;;23.00;35.30;;;;;;5065559;28;20085;-50
2021/04/27 07:53:33;;;;;;;2.20;0.90;;;23.00;35.20;;;;;;5048827;28;20025;-54
2021/04/27 07:55:59;;;;;;;1.40;0.85;;;23.10;35.20;;;;;;5066058;28;20038;-55
2021/04/27 07:58:24;;;;;;;1.50;0.82;;;23.10;35.20;;;;;;5067138;28;20040;-56
2021/04/27 08:00:50;;;;;;;1.65;0.80;;;23.10;35.20;;;;;;5073205;28;20222;-56
2021/04/27 08:03:16;;;;;;;1.70;0.80;;;23.10;35.10;;;;;;5074128;28;20039;-57
2021/04/27 08:05:42;;;;;;;1.23;0.82;;;23.10;35.10;;;;;;5090644;28;20080;-55
2021/04/27 08:08:07;;;;;;;1.85;1.00;;;23.10;35.10;;;;;;5083266;28;20043;-54
2021/04/27 08:10:33;;;;;;;1.58;0.90;;;23.20;35.00;;;;;;5069652;28;20097;-56
2021/04/27 08:12:59;;;;;;;1.92;0.90;;;23.20;35.00;;;;;;5080462;28;20032;-54
2021/04/27 08:15:27;;;;;;;2.20;0.80;;;23.20;35.00;;;;;;5069082;28;20044;-57
2021/04/27 08:17:55;;;;;;;1.77;0.90;;;23.30;35.00;;;;;;5067131;28;20123;-57
2021/04/27 08:20:21;;;;;;;2.05;0.93;;;23.20;35.00;;;;;;5074612;28;20451;-56
2021/04/27 08:22:47;;;;;;;1.45;0.80;;;23.30;35.10;;;;;;5081519;28;20051;-55
2021/04/27 08:25:14;;;;;;;1.70;0.85;;;23.30;35.00;;;;;;5069190;28;20039;-57
2021/04/27 08:27:44;;;;;;;1.17;0.90;;;23.30;35.00;;;;;;5079190;28;20028;-56
2021/04/27 08:30:09;;;;;;;;;;;23.30;34.90;;;;;;5057294;28;20028;-55
2021/04/27 08:32:36;;;;;;;1.48;0.82;;;23.40;35.00;;;;;;5087079;28;19904;-51
2021/04/27 08:35:03;;;;;;;1.40;0.80;;;23.40;34.90;;;;;;5093719;28;20031;-54
2021/04/27 08:37:30;;;;;;;1.92;0.98;;;23.40;34.90;;;;;;5091231;28;20325;-55
2021/04/27 08:39:56;;;;;;;1.75;1.00;;;23.40;34.90;;;;;;5093043;28;20040;-57
2021/04/27 08:42:22;;;;;;;1.48;0.80;;;23.40;34.80;;;;;;5088313;28;20294;-56
2021/04/27 08:44:47;;;;;;;2.33;0.98;;;23.40;34.80;;;;;;5092616;28;20073;-53
2021/04/27 08:47:13;;;;;;;1.80;0.80;;;23.50;34.90;;;;;;5084450;28;20116;-53
2021/04/27 08:49:39;;;;;;;1.50;0.90;;;23.50;34.90;;;;;;5080247;28;20483;-56
2021/04/27 08:52:05;;;;;;;2.08;0.95;;;23.50;34.90;;;;;;5072937;28;20439;-52
2021/04/27 08:54:32;;;;;;;1.80;1.00;;;23.50;35.40;;;;;;5079469;28;20024;-57
2021/04/27 08:56:58;;;;;;;2.22;0.90;;;23.60;34.90;;;;;;5084162;28;20055;-54
2021/04/27 08:59:24;;;;;;;1.35;0.88;;;23.60;34.90;;;;;;5084868;28;20042;-54
2021/04/27 09:01:49;;;;;;;1.88;1.00;;;23.60;34.80;;;;;;5069298;28;20036;-52
2021/04/27 09:04:40;;;;;;;1.45;0.80;;;23.60;34.80;;;;;;5064957;28;20028;-55
2021/04/27 09:07:12;;;;;;;2.00;0.80;;;23.70;34.90;;;;;;5063808;28;20024;-54
2021/04/27 09:09:48;;;;;;;1.65;0.80;;;23.70;34.80;;;;;;5063794;28;20029;-56
2021/04/27 09:12:23;;;;;;;1.20;0.80;;;23.70;34.80;;;;;;5051718;28;20515;-57
2021/04/27 09:14:49;;;;;;;1.08;0.70;;;23.70;34.80;;;;;;5052819;28;20036;-54
2021/04/27 09:17:15;;;;;;;1.10;0.77;;;23.70;34.80;;;;;;5064976;28;20033;-56
2021/04/27 09:19:46;;;;;;;1.40;0.80;;;23.80;34.80;;;;;;5061985;28;20093;-54
2021/04/27 09:22:19;;;;;;;1.90;0.90;;;23.80;34.90;;;;;;5067933;28;20032;-56
2021/04/27 09:24:53;;;;;;;1.45;0.82;;;23.80;34.80;;;;;;5066411;28;20484;-53
2021/04/27 09:27:32;;;;;;;1.30;0.80;;;23.80;34.70;;;;;;5068274;28;20039;-56
2021/04/27 09:30:12;;;;;;;1.55;1.00;;;23.80;34.70;;;;;;5062315;28;20035;-52
2021/04/27 09:32:58;;;;;;;1.75;0.90;;;23.80;34.70;;;;;;5063709;28;20045;-51
2021/04/27 09:35:46;;;;;;;1.42;0.90;;;23.90;34.80;;;;;;5063149;28;20113;-55
2021/04/27 09:38:21;;;;;;;2.20;1.00;;;23.80;34.80;;;;;;5061677;28;20035;-54
2021/04/27 09:41:03;;;;;;;1.40;0.88;;;23.80;34.80;;;;;;5063236;28;20021;-49
2021/04/27 09:43:38;;;;;;;1.70;1.00;;;23.90;34.80;;;;;;5061069;28;20105;-54
2021/04/27 09:46:07;;;;;;;1.90;0.90;;;23.90;34.70;;;;;;5064013;28;20407;-54
2021/04/27 09:48:44;;;;;;;3.47;1.10;;;23.90;34.70;;;;;;5062249;28;20056;-56
2021/04/27 09:51:13;;;;;;;1.30;0.90;;;23.90;34.70;;;;;;5065335;28;20016;-50
2021/04/27 09:53:51;;;;;;;1.90;1.00;;;23.90;34.70;;;;;;5063103;28;20325;-53
2021/04/27 09:56:55;;;;;;;1.23;0.80;;;23.90;34.70;;;;;;5063546;28;20251;-61
2021/04/27 09:59:34;;;;;;;1.75;0.80;;;23.90;34.70;;;;;;4989850;28;20382;-54
2021/04/27 10:02:01;;;;;;;1.52;0.80;;;24.00;34.70;;;;;;5011574;28;20030;-52
2021/04/27 10:04:28;;;;;;;1.92;0.80;;;24.00;34.80;;;;;;5050221;28;20085;-54
2021/04/27 10:06:56;;;;;;;1.45;0.88;;;24.00;34.70;;;;;;5064063;28;20044;-54
2021/04/27 10:09:22;;;;;;;1.73;0.68;;;24.00;34.60;;;;;;5061720;28;20082;-57
2021/04/27 10:11:49;;;;;;;1.27;0.90;;;24.10;34.60;;;;;;5072984;28;20036;-53
2021/04/27 10:14:15;;;;;;;1.48;0.80;;;24.10;34.60;;;;;;5075788;28;20028;-55
2021/04/27 10:16:40;;;;;;;1.67;0.82;;;24.10;34.60;;;;;;5081725;28;20397;-54
2021/04/27 10:19:08;;;;;;;1.65;0.80;;;24.10;34.60;;;;;;5082263;28;20116;-53
2021/04/27 10:21:34;;;;;;;1.55;0.80;;;24.10;34.60;;;;;;5084117;28;20492;-55
2021/04/27 10:24:03;;;;;;;1.63;0.90;;;24.10;34.60;;;;;;5082729;28;20471;-54
2021/04/27 10:26:31;;;;;;;1.83;0.90;;;24.20;34.60;;;;;;5079294;28;20050;-52
2021/04/27 10:28:57;;;;;;;1.70;0.80;;;24.20;34.60;;;;;;5083830;28;20119;-54
2021/04/27 10:31:23;;;;;;;1.63;0.90;;;24.20;34.70;;;;;;5084382;28;20550;-53
2021/04/27 10:34:03;;;;;;;2.03;0.88;;;24.20;34.70;;;;;;5081856;28;20135;-55
2021/04/27 10:36:29;;;;;;;2.00;0.88;;;24.30;34.70;;;;;;5084246;28;20422;-52
2021/04/27 10:39:00;;;;;;;1.35;0.90;;;24.30;34.80;;;;;;5082246;28;20039;-55
2021/04/27 10:41:57;;;;;;;1.23;0.82;;;24.30;34.70;;;;;;5083467;28;20038;-55
2021/04/27 10:44:23;;;;;;;1.67;0.77;;;24.30;34.80;;;;;;5082438;28;20072;-53
2021/04/27 10:46:55;;;;;;;1.65;0.93;;;24.30;34.80;;;;;;5085152;28;20378;-52
2021/04/27 10:49:23;;;;;;;1.55;0.80;;;24.30;34.80;;;;;;5086231;28;20463;-52
2021/04/27 10:51:50;;;;;;;1.38;0.90;;;24.30;34.70;;;;;;5089264;28;20089;-55
2021/04/27 10:54:16;;;;;;;1.42;0.73;;;24.40;34.80;;;;;;5087318;28;20459;-51
2021/04/27 10:56:47;;;;;;;1.38;0.80;;;24.40;34.80;;;;;;5086714;28;20039;-53
2021/04/27 10:59:20;;;;;;;1.20;0.80;;;24.40;34.80;;;;;;5081405;28;20475;-55
2021/04/27 11:01:47;;;;;;;1.88;0.75;;;24.40;34.80;;;;;;5071535;28;20040;-50
2021/04/27 11:04:33;;;;;;;2.17;0.90;;;24.40;34.80;;;;;;5067497;28;20032;-55
2021/04/27 11:07:29;;;;;;;1.35;0.82;;;24.40;34.80;;;;;;5068320;28;20538;-55
2021/04/27 11:09:57;;;;;;;1.95;1.00;;;24.50;34.90;;;;;;5070503;28;20040;-52
2021/04/27 11:12:29;;;;;;;1.42;0.80;;;24.40;34.80;;;;;;5067163;28;20048;-53
2021/04/27 11:15:01;;;;;;;1.48;0.80;;;24.50;34.80;;;;;;5072311;28;20044;-56
2021/04/27 11:17:32;;;;;;;1.85;0.90;;;24.50;34.80;;;;;;5074200;28;20108;-56
2021/04/27 11:19:58;;;;;;;1.20;0.90;;;24.50;34.70;;;;;;5077207;28;20033;-55
2021/04/27 11:22:30;;;;;;;1.65;0.90;;;24.50;34.70;;;;;;5074338;28;20143;-57
2021/04/27 11:24:56;;;;;;;1.58;0.82;;;24.50;34.60;;;;;;5067687;28;20034;-57
2021/04/27 11:27:39;;;;;;;1.55;1.00;;;24.60;34.70;;;;;;5068684;28;20562;-57
2021/04/27 11:30:16;;;;;;;2.65;1.00;;;24.60;34.60;;;;;;5067785;28;20032;-58
2021/04/27 11:32:44;;;;;;;1.65;0.90;;;24.60;34.60;;;;;;5070436;28;20031;-58
2021/04/27 11:35:18;;;;;;;2.42;0.93;;;24.60;34.60;;;;;;5066608;28;20401;-63
2021/04/27 11:37:51;;;;;;;1.48;0.90;;;24.60;34.60;;;;;;5061674;28;20092;-59
2021/04/27 11:40:38;;;;;;;1.73;0.90;;;24.60;34.60;;;;;;5083330;28;20434;-58
2021/04/27 11:43:09;;;;;;;1.77;1.00;;;24.60;34.50;;;;;;5050380;28;20044;-58
2021/04/27 11:45:38;;;;;;;1.83;0.88;;;24.60;34.50;;;;;;5066469;28;20031;-58
2021/04/27 11:48:05;;;;;;;1.58;0.90;;;24.70;34.60;;;;;;5070591;28;20119;-60
2021/04/27 11:50:33;;;;;;;1.85;0.95;;;24.70;34.60;;;;;;5055282;28;20033;-59
2021/04/27 11:53:03;;;;;;;1.27;0.80;;;24.70;34.70;;;;;;5055826;28;20032;-60
2021/04/27 11:55:48;;;;;;;1.10;0.77;;;24.60;34.60;;;;;;5059990;28;20085;-59
2021/04/27 11:58:32;;;;;;;1.38;0.90;;;24.70;34.70;;;;;;5061234;28;20379;-58
2021/04/27 12:01:03;;;;;;;1.20;0.90;;;24.70;35.30;;;;;;5053077;28;20078;-57
2021/04/27 12:03:31;;;;;;;1.35;0.80;;;24.70;34.70;;;;;;5065967;28;20382;-56
2021/04/27 12:06:15;;;;;;;1.38;0.80;;;24.70;34.60;;;;;;5065350;28;20145;-58
2021/04/27 12:08:48;;;;;;;1.45;0.90;;;24.70;34.70;;;;;;5055295;28;20023;-55
2021/04/27 12:11:18;;;;;;;1.40;0.80;;;24.70;34.70;;;;;;5065850;28;20046;-58
2021/04/27 12:14:00;;;;;;;1.88;0.90;;;24.80;34.70;;;;;;5061681;28;20340;-59
2021/04/27 12:16:45;;;;;;;1.85;0.80;;;24.80;34.70;;;;;;5065083;28;20059;-60
2021/04/27 12:19:19;;;;;;;1.55;0.82;;;24.80;34.60;;;;;;5063341;28;20024;-59
2021/04/27 12:22:07;;;;;;;2.08;0.88;;;24.80;34.70;;;;;;5072388;28;20028;-57
2021/04/27 12:24:38;;;;;;;1.40;0.80;;;24.80;34.70;;;;;;5066729;28;20025;-60
2021/04/27 12:27:09;;;;;;;1.17;0.80;;;24.80;34.70;;;;;;5059628;28;20033;-59
2021/04/27 12:29:36;;;;;;;1.08;0.85;;;24.80;34.60;;;;;;5068222;28;20075;-59
2021/04/27 12:32:13;;;;;;;1.73;0.80;;;24.80;34.70;;;;;;5072538;28;20032;-59
2021/04/27 12:34:58;;;;;;;1.98;0.90;;;24.80;34.70;;;;;;5069263;28;20093;-57
2021/04/27 12:37:26;;;;;;;1.17;0.73;;;24.90;34.70;;;;;;5070085;28;20805;-57
2021/04/27 12:39:53;;;;;;;1.23;0.80;;;24.90;34.90;;;;;;5069569;28;20032;-60
2021/04/27 12:42:22;;;;;;;2.13;0.82;;;24.90;34.80;;;;;;5067450;28;20036;-60
2021/04/27 12:45:08;;;;;;;1.25;0.80;;;24.90;34.80;;;;;;5068210;28;20044;-59
2021/04/27 12:47:36;;;;;;;1.55;0.90;;;24.90;34.80;;;;;;5072103;28;20128;-59
2021/04/27 12:50:19;;;;;;;1.88;1.00;;;24.90;34.80;;;;;;5062089;28;20033;-61
2021/04/27 12:52:53;;;;;;;1.23;0.85;;;25.00;34.80;;;;;;5067860;28;20072;-58
2021/04/27 12:55:33;;;;;;;2.72;1.25;;;24.90;34.70;;;;;;5070124;28;20067;-60